createdAt,value
2023-03-16T00:02:34.423Z,3.40
2023-03-16T00:07:36.501Z,4.07
2023-03-16T00:12:39.062Z,3.50
2023-03-16T00:17:41.089Z,3.83
2023-03-16T00:22:42.998Z,3.80
2023-03-16T00:27:45.012Z,3.73
2023-03-16T00:32:47.097Z,3.80
2023-03-16T00:37:52.488Z,3.60
2023-03-16T00:42:55.106Z,3.30
2023-03-16T00:47:57.137Z,3.17
2023-03-16T00:52:59.129Z,3.67
2023-03-16T00:58:04.977Z,2.70
2023-03-16T01:03:07.052Z,3.30
2023-03-16T01:08:09.927Z,2.80
2023-03-16T01:13:13.010Z,2.67
2023-03-16T01:18:14.816Z,3.00
2023-03-16T01:23:18.390Z,2.90
2023-03-16T01:28:21.715Z,2.43
2023-03-16T01:33:25.806Z,2.73
2023-03-16T01:38:28.227Z,2.60
2023-03-16T01:43:33.237Z,2.97
2023-03-16T01:48:47.503Z,3.37
2023-03-16T01:53:58.351Z,2.80
2023-03-16T01:59:05.320Z,3.57
2023-03-16T02:04:16.573Z,2.73
2023-03-16T02:09:19.494Z,2.23
2023-03-16T02:14:21.912Z,2.47
2023-03-16T02:19:44.601Z,2.50
2023-03-16T02:24:46.690Z,2.33
2023-03-16T02:29:52.812Z,2.53
2023-03-16T02:34:55.850Z,2.50
2023-03-16T02:39:57.825Z,3.20
2023-03-16T02:45:00.361Z,2.67
2023-03-16T02:50:08.991Z,3.27
2023-03-16T02:55:11.240Z,2.63
2023-03-16T03:00:18.997Z,2.77
2023-03-16T03:05:24.867Z,2.77
2023-03-16T03:10:28.181Z,1.93
2023-03-16T03:15:31.912Z,2.63
2023-03-16T03:20:39.503Z,2.00
2023-03-16T03:25:41.522Z,1.70
2023-03-16T03:30:43.612Z,2.00
2023-03-16T03:35:47.115Z,2.00
2023-03-16T03:40:53.538Z,2.00
2023-03-16T03:45:57.917Z,2.30
2023-03-16T03:51:00.129Z,1.87
2023-03-16T03:56:31.160Z,2.70
2023-03-16T04:01:33.691Z,2.13
2023-03-16T04:06:35.758Z,2.03
2023-03-16T04:11:38.646Z,2.43
2023-03-16T04:16:40.898Z,2.00
2023-03-16T04:21:43.075Z,2.30
2023-03-16T04:26:45.790Z,2.27
2023-03-16T04:31:48.535Z,2.30
2023-03-16T04:36:52.882Z,2.40
2023-03-16T04:41:55.458Z,3.17
2023-03-16T04:47:00.593Z,2.13
2023-03-16T04:52:11.030Z,2.33
2023-03-16T04:57:13.230Z,2.10
2023-03-16T05:02:21.691Z,2.07
2023-03-16T05:07:24.619Z,2.30
2023-03-16T05:12:29.774Z,1.73
2023-03-16T05:17:36.359Z,1.70
2023-03-16T05:22:43.732Z,1.73
2023-03-16T05:27:53.934Z,2.10
2023-03-16T05:33:11.750Z,2.07
2023-03-16T05:38:15.850Z,2.30
2023-03-16T05:43:20.407Z,1.70
2023-03-16T05:48:25.792Z,1.63
2023-03-16T05:53:30.949Z,1.60
2023-03-16T05:58:42.240Z,1.80
2023-03-16T06:03:45.354Z,1.80
2023-03-16T06:08:53.836Z,2.40
2023-03-16T06:13:58.767Z,1.70
2023-03-16T06:19:01.087Z,1.80
2023-03-16T06:24:04.903Z,1.90
2023-03-16T06:29:07.422Z,2.00
2023-03-16T06:34:11.938Z,1.80
2023-03-16T06:39:14.584Z,1.97
2023-03-16T06:44:22.952Z,1.43
2023-03-16T06:49:35.007Z,1.83
2023-03-16T06:54:42.124Z,1.73
2023-03-16T06:59:45.986Z,1.97
2023-03-16T07:04:48.375Z,2.20
2023-03-16T07:09:50.349Z,1.50
2023-03-16T07:14:54.161Z,1.63
2023-03-16T07:19:59.763Z,1.70
2023-03-16T07:25:02.137Z,2.10
2023-03-16T07:30:05.476Z,1.60
2023-03-16T07:35:11.530Z,2.17
2023-03-16T07:40:14.478Z,1.93
2023-03-16T07:45:18.031Z,1.83
2023-03-16T07:50:22.284Z,2.03
2023-03-16T07:55:24.819Z,1.70
2023-03-16T08:00:29.493Z,1.77
2023-03-16T08:05:32.667Z,1.60
2023-03-16T08:10:37.254Z,1.50
2023-03-16T08:15:48.041Z,1.60
2023-03-16T08:21:01.975Z,1.87
2023-03-16T08:26:08.739Z,1.40
2023-03-16T08:31:12.237Z,1.50
2023-03-16T08:36:30.236Z,1.70
2023-03-16T08:41:34.792Z,1.30
2023-03-16T08:46:42.411Z,1.30
2023-03-16T08:51:45.123Z,1.40
2023-03-16T08:56:47.180Z,1.50
2023-03-16T09:01:49.272Z,1.27
2023-03-16T09:07:05.869Z,1.20
2023-03-16T09:12:10.743Z,1.10
2023-03-16T09:17:12.858Z,1.17
2023-03-16T09:22:14.735Z,1.40
2023-03-16T09:27:18.094Z,1.20
2023-03-16T09:32:20.499Z,1.20
2023-03-16T09:37:23.450Z,0.90
2023-03-16T09:42:43.992Z,1.17
2023-03-16T09:47:49.584Z,0.97
2023-03-16T09:53:08.980Z,1.27
2023-03-16T09:58:17.891Z,1.00
2023-03-16T10:03:49.140Z,1.20
2023-03-16T10:09:23.047Z,1.10
2023-03-16T10:14:41.511Z,0.95
2023-03-16T10:20:23.250Z,0.90
2023-03-16T10:25:42.938Z,1.10
2023-03-16T10:30:45.592Z,0.95
2023-03-16T10:35:52.432Z,0.90
2023-03-16T10:40:54.347Z,1.00
2023-03-16T10:46:02.351Z,1.02
2023-03-16T10:51:11.935Z,0.85
2023-03-16T10:56:28.400Z,0.70
2023-03-16T11:01:32.265Z,0.90
2023-03-16T11:06:34.644Z,0.63
2023-03-16T11:11:37.219Z,0.95
2023-03-16T11:16:57.832Z,1.40
2023-03-16T11:22:26.299Z,0.80
2023-03-16T11:27:40.543Z,1.10
2023-03-16T11:32:48.740Z,0.80
2023-03-16T11:37:50.672Z,0.70
2023-03-16T11:43:22.151Z,0.85
2023-03-16T11:48:42.513Z,1.00
2023-03-16T11:54:24.172Z,1.05
2023-03-16T12:00:01.202Z,0.88
2023-03-16T12:05:39.738Z,1.10
2023-03-16T12:10:52.390Z,1.20
2023-03-16T12:16:01.812Z,1.27
2023-03-16T12:21:12.348Z,0.88
2023-03-16T12:26:15.112Z,0.85
2023-03-16T12:31:23.962Z,0.82
2023-03-16T12:36:37.988Z,1.10
2023-03-16T12:42:21.831Z,1.00
2023-03-16T12:47:38.067Z,0.88
2023-03-16T12:52:42.132Z,1.00
2023-03-16T12:57:45.618Z,0.82
2023-03-16T13:02:56.547Z,1.13
2023-03-16T13:08:17.189Z,1.00
2023-03-16T13:13:25.593Z,0.93
2023-03-16T13:18:44.636Z,1.20
2023-03-16T13:23:58.425Z,1.00
2023-03-16T13:29:00.648Z,0.90
2023-03-16T13:34:05.971Z,1.10
2023-03-16T13:39:18.844Z,0.75
2023-03-16T13:44:24.316Z,0.90
2023-03-16T13:49:26.232Z,0.95
2023-03-16T13:54:30.522Z,1.00
2023-03-16T13:59:32.755Z,0.90
2023-03-16T14:04:34.985Z,0.90
2023-03-16T14:09:38.104Z,1.10
2023-03-16T14:14:41.617Z,1.23
2023-03-16T14:19:50.638Z,0.95
2023-03-16T14:24:57.022Z,0.90
2023-03-16T14:30:15.650Z,1.30
2023-03-16T14:35:21.247Z,0.80
2023-03-16T14:40:31.885Z,0.90
2023-03-16T14:45:35.990Z,0.77
2023-03-16T14:50:38.560Z,0.95
2023-03-16T14:55:40.742Z,0.73
2023-03-16T15:00:52.598Z,1.10
2023-03-16T15:05:55.913Z,0.90
2023-03-16T15:11:01.056Z,1.13
2023-03-16T15:16:07.602Z,1.00
2023-03-16T15:21:15.398Z,1.27
2023-03-16T15:26:25.045Z,0.85
2023-03-16T15:31:27.372Z,1.10
2023-03-16T15:36:29.520Z,1.00
2023-03-16T15:41:41.341Z,0.90
2023-03-16T15:46:49.191Z,1.13
2023-03-16T15:51:51.321Z,0.93
2023-03-16T15:56:55.872Z,0.90
2023-03-16T16:01:58.306Z,1.05
2023-03-16T16:07:02.947Z,0.82
2023-03-16T16:12:07.792Z,1.00
2023-03-16T16:17:19.897Z,0.70
2023-03-16T16:22:21.979Z,1.10
2023-03-16T16:27:24.016Z,1.00
2023-03-16T16:32:26.295Z,1.10
2023-03-16T16:37:28.387Z,1.10
2023-03-16T16:42:30.583Z,1.10
2023-03-16T16:47:32.951Z,1.40
2023-03-16T16:52:34.748Z,0.93
2023-03-16T16:57:37.087Z,1.10
2023-03-16T17:02:48.193Z,1.00
2023-03-16T17:07:51.441Z,1.10
2023-03-16T17:12:57.129Z,1.30
2023-03-16T17:18:07.224Z,0.90
2023-03-16T17:23:26.129Z,1.30
2023-03-16T17:28:31.844Z,1.20
2023-03-16T17:33:34.198Z,1.30
2023-03-16T17:38:36.348Z,1.20
2023-03-16T17:43:38.561Z,1.40
2023-03-16T17:48:40.458Z,1.30
2023-03-16T17:53:44.429Z,1.30
2023-03-16T17:58:49.117Z,1.37
2023-03-16T18:03:51.411Z,1.43
2023-03-16T18:08:53.808Z,1.20
2023-03-16T18:13:55.740Z,1.30
2023-03-16T18:19:06.008Z,1.73
2023-03-16T18:24:15.893Z,1.60
2023-03-16T18:29:18.959Z,1.13
2023-03-16T18:34:23.966Z,1.80
2023-03-16T18:39:27.298Z,1.63
2023-03-16T18:44:30.519Z,1.43
2023-03-16T18:49:36.768Z,2.10
2023-03-16T18:54:39.077Z,1.80
2023-03-16T18:59:41.304Z,2.03
2023-03-16T19:04:43.288Z,2.50
2023-03-16T19:09:45.149Z,2.23
2023-03-16T19:14:47.656Z,2.60
2023-03-16T19:19:49.716Z,2.47
2023-03-16T19:24:54.706Z,1.70
2023-03-16T19:29:56.735Z,2.17
2023-03-16T19:34:59.022Z,1.80
2023-03-16T19:40:01.570Z,2.10
2023-03-16T19:45:04.844Z,2.17
2023-03-16T19:50:14.829Z,1.70
2023-03-16T19:55:23.148Z,1.77
2023-03-16T20:00:26.617Z,1.67
2023-03-16T20:05:30.734Z,2.80
2023-03-16T20:10:33.129Z,2.10
2023-03-16T20:15:35.622Z,1.83
2023-03-16T20:20:38.346Z,2.00
2023-03-16T20:25:40.181Z,1.93
2023-03-16T20:30:42.091Z,1.90
2023-03-16T20:35:44.603Z,1.50
2023-03-16T20:40:49.092Z,1.90
2023-03-16T20:45:53.511Z,2.03
2023-03-16T20:50:57.475Z,1.70
2023-03-16T20:55:59.827Z,1.50
2023-03-16T21:01:03.820Z,1.43
2023-03-16T21:06:10.321Z,1.20
2023-03-16T21:11:22.651Z,1.70
2023-03-16T21:16:25.345Z,2.17
2023-03-16T21:21:27.435Z,1.77
2023-03-16T21:26:33.895Z,1.20
2023-03-16T21:31:36.183Z,1.43
2023-03-16T21:36:38.272Z,1.30
2023-03-16T21:41:40.378Z,1.30
2023-03-16T21:46:42.530Z,1.20
2023-03-16T21:51:44.505Z,1.10
2023-03-16T21:56:47.903Z,1.17
2023-03-16T22:02:01.149Z,1.27
2023-03-16T22:07:11.621Z,1.40
2023-03-16T22:12:14.033Z,1.00
2023-03-16T22:17:22.395Z,1.20
2023-03-16T22:22:24.327Z,1.00
2023-03-16T22:27:26.397Z,1.07
2023-03-16T22:32:28.830Z,1.33
2023-03-16T22:37:30.909Z,1.47
2023-03-16T22:42:37.147Z,1.33
2023-03-16T22:47:42.134Z,1.53
2023-03-16T22:52:47.582Z,1.33
2023-03-16T22:57:55.437Z,1.10
2023-03-16T23:02:58.069Z,1.23
2023-03-16T23:08:02.563Z,1.33
2023-03-16T23:13:12.276Z,1.20
2023-03-16T23:18:24.602Z,1.30
2023-03-16T23:23:26.784Z,1.07
2023-03-16T23:28:29.208Z,1.37
2023-03-16T23:33:31.210Z,1.20
2023-03-16T23:38:33.117Z,1.20
2023-03-16T23:43:35.431Z,1.00
2023-03-16T23:48:38.893Z,1.23
2023-03-16T23:53:41.904Z,1.23
2023-03-16T23:58:43.962Z,1.30
